createdAt,value
2018-09-26T00:01:01.175Z,99.90
2018-09-26T00:03:35.226Z,99.90
2018-09-26T00:06:04.016Z,99.90
2018-09-26T00:08:31.607Z,99.90
2018-09-26T00:10:59.125Z,99.90
2018-09-26T00:13:26.663Z,99.90
2018-09-26T00:15:54.172Z,99.90
2018-09-26T00:18:21.693Z,99.90
2018-09-26T00:20:49.217Z,99.90
2018-09-26T00:23:16.775Z,99.90
2018-09-26T00:25:44.434Z,99.90
2018-09-26T00:28:11.989Z,99.90
2018-09-26T00:30:39.766Z,99.90
2018-09-26T00:33:07.333Z,99.90
2018-09-26T00:35:34.886Z,99.90
2018-09-26T00:38:02.445Z,99.90
2018-09-26T00:40:30.050Z,99.90
2018-09-26T00:42:57.684Z,99.90
2018-09-26T00:45:25.246Z,99.90
2018-09-26T00:47:52.790Z,99.90
2018-09-26T00:50:20.329Z,99.90
2018-09-26T00:52:47.888Z,99.90
2018-09-26T00:55:15.418Z,99.90
2018-09-26T00:57:42.962Z,99.90
2018-09-26T01:00:10.533Z,99.90
2018-09-26T01:02:38.097Z,99.90
2018-09-26T01:05:05.729Z,99.90
2018-09-26T01:07:33.883Z,99.90
2018-09-26T01:10:01.725Z,99.90
2018-09-26T01:12:29.289Z,99.90
2018-09-26T01:14:56.826Z,99.90
2018-09-26T01:17:24.685Z,99.90
2018-09-26T01:19:52.225Z,99.90
2018-09-26T01:22:19.946Z,99.90
2018-09-26T01:24:47.477Z,99.90
2018-09-26T01:27:15.035Z,99.90
2018-09-26T01:29:42.596Z,99.90
2018-09-26T01:32:10.126Z,99.90
2018-09-26T01:34:37.861Z,99.90
2018-09-26T01:37:05.448Z,99.90
2018-09-26T01:39:33.766Z,99.90
2018-09-26T01:42:01.314Z,99.90
2018-09-26T01:44:28.904Z,99.90
2018-09-26T01:46:56.770Z,99.90
2018-09-26T01:49:24.388Z,99.90
2018-09-26T01:51:52.017Z,99.90
2018-09-26T01:54:19.561Z,99.90
2018-09-26T01:56:47.105Z,99.90
2018-09-26T01:59:14.641Z,99.90
2018-09-26T02:01:42.181Z,99.90
2018-09-26T02:04:10.013Z,99.90
2018-09-26T02:06:37.549Z,99.90
2018-09-26T02:09:07.589Z,99.90
2018-09-26T02:11:35.182Z,99.90
2018-09-26T02:14:02.733Z,99.90
2018-09-26T02:16:30.250Z,99.90
2018-09-26T02:18:58.071Z,99.90
2018-09-26T02:21:25.601Z,99.90
2018-09-26T02:23:53.230Z,99.90
2018-09-26T02:26:20.762Z,99.90
2018-09-26T02:28:48.310Z,99.90
2018-09-26T02:31:15.858Z,99.90
2018-09-26T02:33:43.401Z,99.90
2018-09-26T02:36:10.952Z,99.90
2018-09-26T02:38:38.526Z,99.90
2018-09-26T02:41:06.127Z,99.90
2018-09-26T02:43:33.661Z,99.90
2018-09-26T02:46:01.210Z,99.90
2018-09-26T02:48:34.919Z,99.90
2018-09-26T02:51:02.721Z,99.90
2018-09-26T02:53:30.304Z,99.90
2018-09-26T02:55:57.956Z,99.90
2018-09-26T02:58:25.492Z,99.90
2018-09-26T03:00:53.199Z,99.90
2018-09-26T03:03:20.731Z,99.90
2018-09-26T03:05:48.280Z,99.90
2018-09-26T03:08:15.813Z,99.90
2018-09-26T03:10:43.399Z,99.90
2018-09-26T03:13:10.923Z,99.90
2018-09-26T03:15:38.601Z,99.90
2018-09-26T03:18:06.268Z,99.90
2018-09-26T03:20:33.900Z,99.90
2018-09-26T03:23:01.425Z,99.90
2018-09-26T03:25:28.979Z,99.90
2018-09-26T03:27:56.905Z,99.90
2018-09-26T03:30:24.879Z,99.90
2018-09-26T03:32:52.831Z,99.90
2018-09-26T03:35:20.442Z,99.90
2018-09-26T03:37:48.013Z,99.90
2018-09-26T03:40:15.797Z,99.90
2018-09-26T03:42:43.450Z,99.90
2018-09-26T03:45:11.004Z,99.90
2018-09-26T03:47:39.173Z,99.90
2018-09-26T03:50:06.853Z,99.90
2018-09-26T03:52:34.658Z,99.90
2018-09-26T03:55:02.236Z,99.90
2018-09-26T03:57:30.485Z,99.90
2018-09-26T03:59:58.024Z,99.90
2018-09-26T04:02:25.786Z,99.90
2018-09-26T04:04:53.365Z,99.90
2018-09-26T04:07:21.285Z,99.90
2018-09-26T04:09:48.832Z,99.90
2018-09-26T04:12:16.361Z,99.90
2018-09-26T04:14:44.213Z,99.90
2018-09-26T04:17:11.762Z,99.90
2018-09-26T04:19:39.501Z,99.90
2018-09-26T04:22:07.080Z,99.90
2018-09-26T04:24:34.638Z,99.90
2018-09-26T04:27:02.529Z,99.90
2018-09-26T04:29:30.402Z,99.90
2018-09-26T04:31:57.981Z,99.90
2018-09-26T04:34:25.510Z,99.90
2018-09-26T04:36:53.061Z,99.90
2018-09-26T04:39:20.619Z,99.90
2018-09-26T04:41:48.161Z,99.90
2018-09-26T04:44:15.734Z,99.90
2018-09-26T04:46:45.199Z,99.90
2018-09-26T04:49:12.726Z,99.90
2018-09-26T04:51:40.746Z,99.90
2018-09-26T04:54:08.264Z,99.90
2018-09-26T04:56:35.816Z,99.90
2018-09-26T04:59:03.533Z,99.90
2018-09-26T05:01:31.073Z,99.90
2018-09-26T05:04:03.340Z,99.90
2018-09-26T05:06:30.931Z,99.90
2018-09-26T05:08:58.588Z,99.90
2018-09-26T05:11:26.198Z,99.90
2018-09-26T05:13:53.974Z,99.90
2018-09-26T05:16:21.529Z,99.90
2018-09-26T05:18:49.208Z,99.90
2018-09-26T05:21:16.772Z,99.90
2018-09-26T05:23:45.115Z,99.90
2018-09-26T05:26:12.845Z,99.90
2018-09-26T05:28:40.584Z,99.90
2018-09-26T05:31:08.189Z,99.90
2018-09-26T05:33:35.721Z,99.90
2018-09-26T05:36:03.301Z,99.90
2018-09-26T05:38:30.973Z,99.90
2018-09-26T05:40:58.505Z,99.90
2018-09-26T05:43:26.041Z,99.90
2018-09-26T05:45:54.037Z,99.90
2018-09-26T05:48:22.006Z,99.90
2018-09-26T05:50:49.961Z,99.90
2018-09-26T05:53:17.616Z,99.90
2018-09-26T05:55:45.197Z,99.90
2018-09-26T05:58:12.749Z,99.90
2018-09-26T06:00:40.876Z,99.90
2018-09-26T06:03:08.553Z,99.90
2018-09-26T06:05:36.682Z,99.90
2018-09-26T06:08:04.787Z,99.90
2018-09-26T06:10:32.348Z,99.90
2018-09-26T06:13:00.048Z,99.90
2018-09-26T06:15:27.539Z,99.90
2018-09-26T06:17:55.097Z,99.90
2018-09-26T06:20:22.641Z,99.90
2018-09-26T06:22:50.324Z,99.90
2018-09-26T06:25:17.841Z,99.90
2018-09-26T06:27:45.373Z,99.90
2018-09-26T06:30:12.973Z,99.90
2018-09-26T06:32:40.545Z,99.90
2018-09-26T06:35:08.180Z,99.90
2018-09-26T06:37:36.217Z,99.90
2018-09-26T06:40:03.844Z,99.90
2018-09-26T06:42:31.756Z,99.90
2018-09-26T06:44:59.331Z,99.90
2018-09-26T06:47:27.150Z,99.90
2018-09-26T06:49:54.701Z,99.90
2018-09-26T06:52:22.269Z,99.90
2018-09-26T06:54:49.882Z,99.90
2018-09-26T06:57:17.688Z,99.90
2018-09-26T06:59:45.733Z,99.90
2018-09-26T07:02:13.272Z,99.90
2018-09-26T07:04:40.805Z,99.90
2018-09-26T07:07:08.378Z,99.90
2018-09-26T07:09:35.905Z,99.90
2018-09-26T07:12:04.523Z,99.90
2018-09-26T07:14:32.048Z,99.90
2018-09-26T07:17:05.649Z,99.90
2018-09-26T07:19:33.209Z,99.90
2018-09-26T07:22:00.720Z,99.90
2018-09-26T07:24:28.738Z,99.90
2018-09-26T07:26:56.277Z,99.90
2018-09-26T07:29:23.828Z,99.90
2018-09-26T07:31:51.384Z,99.90
2018-09-26T07:34:23.500Z,99.90
2018-09-26T07:36:51.333Z,99.90
2018-09-26T07:39:18.884Z,99.90
2018-09-26T07:41:46.428Z,99.90
2018-09-26T07:44:14.014Z,99.90
2018-09-26T07:46:41.553Z,99.90
2018-09-26T07:49:09.140Z,99.90
2018-09-26T07:51:36.721Z,99.90
2018-09-26T07:54:04.665Z,99.90
2018-09-26T07:56:32.189Z,99.90
2018-09-26T07:58:59.771Z,99.90
2018-09-26T08:01:27.305Z,99.90
2018-09-26T08:03:54.929Z,99.90
2018-09-26T08:06:22.536Z,99.90
2018-09-26T08:08:50.078Z,99.90
2018-09-26T08:11:19.505Z,99.90
2018-09-26T08:13:47.040Z,99.90
2018-09-26T08:16:14.562Z,99.80
2018-09-26T08:18:42.199Z,99.90
2018-09-26T08:21:09.719Z,99.90
2018-09-26T08:23:37.285Z,99.90
2018-09-26T08:26:04.829Z,98.90
2018-09-26T08:28:32.395Z,98.50
2018-09-26T08:30:59.928Z,98.00
2018-09-26T08:33:27.472Z,99.90
2018-09-26T08:38:32.109Z,96.80
2018-09-26T08:40:59.641Z,95.50
2018-09-26T08:43:27.182Z,95.80
2018-09-26T08:45:54.730Z,96.00
2018-09-26T08:48:22.262Z,94.90
2018-09-26T08:50:50.301Z,93.50
2018-09-26T08:53:17.866Z,93.00
2018-09-26T08:55:45.469Z,92.40
2018-09-26T08:58:13.025Z,91.40
2018-09-26T09:00:40.617Z,92.00
2018-09-26T09:03:08.165Z,90.70
2018-09-26T09:05:36.077Z,90.50
2018-09-26T09:08:03.652Z,90.20
2018-09-26T09:10:32.041Z,91.20
2018-09-26T09:12:59.813Z,92.80
2018-09-26T09:15:27.875Z,93.00
2018-09-26T09:17:55.958Z,92.90
2018-09-26T09:20:23.540Z,92.60
2018-09-26T09:22:51.038Z,92.10
2018-09-26T09:25:18.600Z,92.40
2018-09-26T09:27:46.897Z,92.80
2018-09-26T09:30:14.450Z,92.10
2018-09-26T09:32:41.990Z,91.00
2018-09-26T09:35:09.541Z,90.10
2018-09-26T09:37:37.091Z,91.30
2018-09-26T09:40:07.454Z,90.50
2018-09-26T09:42:35.009Z,90.60
2018-09-26T09:45:02.611Z,88.20
2018-09-26T09:47:30.142Z,86.80
2018-09-26T09:49:57.688Z,87.60
2018-09-26T09:52:25.478Z,88.80
2018-09-26T09:54:53.308Z,86.60
2018-09-26T09:57:20.869Z,86.10
2018-09-26T09:59:48.397Z,81.10
2018-09-26T10:02:16.035Z,80.70
2018-09-26T10:04:43.541Z,79.20
2018-09-26T10:07:11.085Z,81.80
2018-09-26T10:09:38.749Z,79.80
2018-09-26T10:12:06.430Z,79.10
2018-09-26T10:14:34.026Z,77.80
2018-09-26T10:17:01.544Z,79.20
2018-09-26T10:19:29.089Z,77.50
2018-09-26T10:21:56.617Z,76.60
2018-09-26T10:24:24.125Z,76.20
2018-09-26T10:26:51.634Z,75.80
2018-09-26T10:29:19.186Z,76.90
2018-09-26T10:31:46.744Z,74.60
2018-09-26T10:34:14.314Z,73.00
2018-09-26T10:36:41.944Z,72.30
2018-09-26T10:39:10.513Z,72.10
2018-09-26T10:41:38.049Z,71.30
2018-09-26T10:44:05.943Z,72.00
2018-09-26T10:46:33.494Z,71.80
2018-09-26T10:49:01.195Z,68.90
2018-09-26T10:51:28.775Z,69.30
2018-09-26T10:53:56.357Z,70.10
2018-09-26T10:56:23.978Z,69.00
2018-09-26T10:58:51.473Z,70.00
2018-09-26T11:01:19.046Z,67.20
2018-09-26T11:03:46.576Z,66.30
2018-09-26T11:06:14.160Z,67.70
2018-09-26T11:08:41.721Z,67.50
2018-09-26T11:11:09.272Z,66.20
2018-09-26T11:13:36.804Z,66.00
2018-09-26T11:16:04.428Z,69.80
2018-09-26T11:18:32.337Z,67.20
2018-09-26T11:20:59.915Z,65.40
2018-09-26T11:23:27.441Z,62.90
2018-09-26T11:25:55.003Z,59.80
2018-09-26T11:28:22.621Z,57.50
2018-09-26T11:30:50.661Z,57.90
2018-09-26T11:33:18.226Z,53.10
2018-09-26T11:35:46.005Z,62.30
2018-09-26T11:38:13.581Z,62.40
2018-09-26T11:40:41.150Z,54.90
2018-09-26T11:43:08.693Z,57.50
2018-09-26T11:45:36.288Z,51.80
2018-09-26T11:48:04.712Z,49.60
2018-09-26T11:50:32.313Z,51.10
2018-09-26T11:53:02.361Z,51.20
2018-09-26T11:55:29.942Z,52.10
2018-09-26T11:57:58.208Z,52.80
2018-09-26T12:00:25.730Z,51.10
2018-09-26T12:02:53.414Z,48.10
2018-09-26T12:05:21.057Z,49.90
2018-09-26T12:07:48.657Z,48.60
2018-09-26T12:10:16.248Z,47.10
2018-09-26T12:12:43.730Z,49.00
2018-09-26T12:15:11.257Z,49.50
2018-09-26T12:17:38.805Z,49.70
2018-09-26T12:20:06.392Z,48.50
2018-09-26T12:22:34.064Z,48.90
2018-09-26T12:25:01.930Z,49.60
2018-09-26T12:27:29.482Z,46.60
2018-09-26T12:29:57.019Z,46.10
2018-09-26T12:32:24.648Z,44.60
2018-09-26T12:34:52.345Z,44.10
2018-09-26T12:37:19.771Z,45.50
2018-09-26T12:39:47.288Z,43.50
2018-09-26T12:42:14.933Z,43.50
2018-09-26T12:44:42.438Z,44.00
2018-09-26T12:47:10.084Z,43.70
2018-09-26T12:49:37.988Z,44.20
2018-09-26T12:52:05.765Z,43.90
2018-09-26T12:54:33.320Z,44.70
2018-09-26T12:57:01.966Z,42.70
2018-09-26T12:59:29.510Z,39.80
2018-09-26T13:01:57.097Z,40.30
2018-09-26T13:04:24.737Z,40.90
2018-09-26T13:06:52.257Z,42.80
2018-09-26T13:09:19.822Z,43.10
2018-09-26T13:11:47.432Z,42.80
2018-09-26T13:14:15.044Z,40.30
2018-09-26T13:16:42.552Z,40.30
2018-09-26T13:19:10.542Z,41.40
2018-09-26T13:21:38.088Z,41.10
2018-09-26T13:24:05.637Z,40.40
2018-09-26T13:26:33.213Z,39.40
2018-09-26T13:29:00.961Z,38.20
2018-09-26T13:31:28.509Z,39.50
2018-09-26T13:33:56.116Z,40.30
2018-09-26T13:36:23.677Z,40.30
2018-09-26T13:38:51.265Z,39.80
2018-09-26T13:41:18.784Z,38.40
2018-09-26T13:43:46.723Z,39.00
2018-09-26T13:46:14.290Z,38.70
2018-09-26T13:48:41.821Z,40.50
2018-09-26T13:51:09.357Z,38.50
2018-09-26T13:53:37.000Z,37.40
2018-09-26T13:56:07.933Z,37.80
2018-09-26T13:58:35.485Z,38.20
2018-09-26T14:01:04.510Z,38.00
2018-09-26T14:03:32.045Z,34.90
2018-09-26T14:05:59.618Z,34.70
2018-09-26T14:08:27.224Z,34.70
2018-09-26T14:10:55.789Z,32.30
2018-09-26T14:13:23.388Z,29.90
2018-09-26T14:15:50.909Z,29.00
2018-09-26T14:18:18.516Z,26.10
2018-09-26T14:21:03.168Z,26.10
2018-09-26T14:23:30.976Z,24.00
2018-09-26T14:25:58.614Z,24.10
2018-09-26T14:28:26.348Z,23.40
2018-09-26T14:30:54.280Z,23.20
2018-09-26T14:33:21.880Z,22.80
2018-09-26T14:35:49.524Z,24.30
2018-09-26T14:38:17.223Z,24.30
2018-09-26T14:40:44.828Z,24.10
2018-09-26T14:43:12.514Z,23.40
2018-09-26T14:45:40.303Z,22.60
2018-09-26T14:48:07.994Z,23.20
2018-09-26T14:50:35.641Z,22.70
2018-09-26T14:53:03.334Z,22.30
2018-09-26T14:55:31.005Z,21.80
2018-09-26T14:57:58.710Z,21.90
2018-09-26T15:00:26.402Z,20.90
2018-09-26T15:02:54.029Z,21.30
2018-09-26T15:05:21.697Z,22.90
2018-09-26T15:07:49.362Z,22.70
2018-09-26T15:10:17.096Z,23.00
2018-09-26T15:12:45.037Z,24.10
2018-09-26T15:15:14.359Z,23.40
2018-09-26T15:17:42.721Z,23.40
2018-09-26T15:20:10.497Z,22.80
2018-09-26T15:22:38.097Z,23.20
2018-09-26T15:25:05.826Z,23.30
2018-09-26T15:27:33.470Z,24.70
2018-09-26T15:30:01.150Z,23.50
2018-09-26T15:32:28.777Z,24.30
2018-09-26T15:34:58.368Z,24.60
2018-09-26T15:37:26.073Z,24.70
2018-09-26T15:39:53.808Z,23.80
2018-09-26T15:42:21.624Z,23.70
2018-09-26T15:44:49.237Z,24.10
2018-09-26T15:47:17.028Z,23.60
2018-09-26T15:49:44.693Z,24.10
2018-09-26T15:52:12.390Z,23.70
2018-09-26T15:54:40.449Z,23.30
2018-09-26T15:57:08.337Z,23.00
2018-09-26T15:59:36.032Z,24.00
2018-09-26T16:02:08.060Z,23.60
2018-09-26T16:04:35.905Z,24.90
2018-09-26T16:07:03.545Z,24.90
2018-09-26T16:09:31.113Z,24.30
2018-09-26T16:11:58.733Z,25.70
2018-09-26T16:14:26.684Z,25.80
2018-09-26T16:16:55.257Z,25.30
2018-09-26T16:19:23.052Z,26.10
2018-09-26T16:21:50.589Z,26.70
2018-09-26T16:24:18.172Z,26.70
2018-09-26T16:26:45.748Z,26.80
2018-09-26T16:29:13.317Z,26.10
2018-09-26T16:31:41.009Z,26.70
2018-09-26T16:34:08.709Z,27.30
2018-09-26T16:36:36.201Z,27.80
2018-09-26T16:39:07.321Z,28.70
2018-09-26T16:41:34.982Z,30.00
2018-09-26T16:44:02.517Z,30.60
2018-09-26T16:46:30.361Z,31.20
2018-09-26T16:48:57.926Z,31.40
2018-09-26T16:51:25.509Z,31.30
2018-09-26T16:53:53.080Z,34.80
2018-09-26T16:56:20.750Z,38.40
2018-09-26T16:58:48.257Z,41.20
2018-09-26T17:01:15.822Z,44.00
2018-09-26T17:03:43.657Z,47.20
2018-09-26T17:06:11.277Z,50.40
2018-09-26T17:08:38.826Z,54.20
2018-09-26T17:11:06.485Z,57.70
2018-09-26T17:13:34.057Z,59.40
2018-09-26T17:16:01.625Z,60.20
2018-09-26T17:18:29.207Z,63.90
2018-09-26T17:20:56.757Z,66.20
2018-09-26T17:23:24.548Z,69.00
2018-09-26T17:25:52.093Z,70.70
2018-09-26T17:28:19.721Z,72.10
2018-09-26T17:30:47.229Z,73.30
2018-09-26T17:33:14.781Z,76.10
2018-09-26T17:35:42.325Z,77.30
2018-09-26T17:38:10.090Z,77.20
2018-09-26T17:40:37.617Z,80.30
2018-09-26T17:43:05.227Z,81.20
2018-09-26T17:45:33.685Z,81.20
2018-09-26T17:48:01.245Z,81.90
2018-09-26T17:50:28.785Z,82.80
2018-09-26T17:52:56.350Z,83.70
2018-09-26T17:55:23.896Z,85.00
2018-09-26T17:57:51.506Z,85.40
2018-09-26T18:00:19.146Z,85.70
2018-09-26T18:02:46.617Z,86.10
2018-09-26T18:05:14.213Z,85.50
2018-09-26T18:07:41.789Z,87.80
2018-09-26T18:10:09.992Z,90.00
2018-09-26T18:12:37.725Z,90.30
2018-09-26T18:15:05.317Z,90.50
2018-09-26T18:17:32.920Z,90.40
2018-09-26T18:20:00.417Z,90.90
2018-09-26T18:22:27.948Z,91.80
2018-09-26T18:24:55.586Z,92.10
2018-09-26T18:27:23.143Z,92.30
2018-09-26T18:29:50.722Z,92.60
2018-09-26T18:32:18.293Z,93.00
2018-09-26T18:34:45.913Z,93.60
2018-09-26T18:37:13.749Z,94.00
2018-09-26T18:39:41.944Z,94.20
2018-09-26T18:42:09.672Z,94.30
2018-09-26T18:44:37.260Z,94.40
2018-09-26T18:47:04.833Z,94.50
2018-09-26T18:49:32.438Z,94.60
2018-09-26T18:52:00.029Z,94.80
2018-09-26T18:54:27.621Z,95.40
2018-09-26T18:56:55.212Z,95.50
2018-09-26T18:59:22.800Z,95.60
2018-09-26T19:01:50.415Z,95.80
2018-09-26T19:04:18.325Z,96.20
2018-09-26T19:06:45.903Z,96.30
2018-09-26T19:09:13.446Z,96.90
2018-09-26T19:11:40.992Z,96.90
2018-09-26T19:14:09.494Z,96.60
2018-09-26T19:16:37.057Z,97.00
2018-09-26T19:19:05.224Z,96.70
2018-09-26T19:21:32.829Z,96.50
2018-09-26T19:24:00.340Z,96.60
2018-09-26T19:26:27.926Z,96.90
2018-09-26T19:28:55.549Z,96.80
2018-09-26T19:31:23.108Z,96.10
2018-09-26T19:33:50.732Z,96.90
2018-09-26T19:36:18.314Z,97.30
2018-09-26T19:38:45.982Z,97.10
2018-09-26T19:41:13.517Z,97.40
2018-09-26T19:43:41.159Z,97.10
2018-09-26T19:46:08.781Z,97.30
2018-09-26T19:48:36.325Z,97.30
2018-09-26T19:51:03.919Z,97.50
2018-09-26T19:53:31.473Z,97.80
2018-09-26T19:55:59.086Z,97.90
2018-09-26T19:58:26.750Z,97.90
2018-09-26T20:00:54.269Z,98.00
2018-09-26T20:03:21.825Z,98.30
2018-09-26T20:05:49.550Z,98.20
2018-09-26T20:08:17.161Z,98.10
2018-09-26T20:10:45.519Z,98.00
2018-09-26T20:13:13.052Z,98.60
2018-09-26T20:15:40.621Z,98.70
2018-09-26T20:18:08.153Z,99.20
2018-09-26T20:20:35.723Z,99.10
2018-09-26T20:23:03.366Z,99.10
2018-09-26T20:25:30.865Z,99.10
2018-09-26T20:27:58.402Z,99.20
2018-09-26T20:30:25.969Z,99.70
2018-09-26T20:32:53.544Z,99.90
2018-09-26T20:35:21.191Z,99.90
2018-09-26T20:37:49.087Z,99.90
2018-09-26T20:40:16.715Z,99.90
2018-09-26T20:42:44.280Z,99.90
2018-09-26T20:45:11.893Z,99.90
2018-09-26T20:47:39.461Z,99.90
2018-09-26T20:50:07.105Z,99.90
2018-09-26T20:52:34.741Z,99.90
2018-09-26T20:55:02.633Z,99.90
2018-09-26T20:57:30.243Z,99.90
2018-09-26T20:59:57.834Z,99.90
2018-09-26T21:02:25.413Z,99.90
2018-09-26T21:04:53.004Z,99.90
2018-09-26T21:07:21.660Z,99.90
2018-09-26T21:09:49.578Z,99.90
2018-09-26T21:12:20.129Z,99.90
2018-09-26T21:14:47.801Z,99.90
2018-09-26T21:17:15.333Z,99.90
2018-09-26T21:19:42.949Z,99.90
2018-09-26T21:22:10.473Z,99.90
2018-09-26T21:24:38.033Z,99.90
2018-09-26T21:27:05.889Z,99.90
2018-09-26T21:29:33.453Z,99.90
2018-09-26T21:32:01.059Z,99.90
2018-09-26T21:34:28.697Z,99.90
2018-09-26T21:36:56.237Z,99.90
2018-09-26T21:39:23.819Z,99.90
2018-09-26T21:41:51.645Z,99.90
2018-09-26T21:44:19.261Z,99.90
2018-09-26T21:46:46.784Z,99.90
2018-09-26T21:49:14.342Z,99.90
2018-09-26T21:51:41.877Z,99.90
2018-09-26T21:54:09.451Z,99.90
2018-09-26T21:56:37.269Z,99.90
2018-09-26T21:59:05.029Z,99.90
2018-09-26T22:01:32.716Z,99.90
2018-09-26T22:04:00.318Z,99.90
2018-09-26T22:06:27.993Z,99.90
2018-09-26T22:08:55.560Z,99.90
2018-09-26T22:11:23.469Z,99.90
2018-09-26T22:13:51.096Z,99.90
2018-09-26T22:16:18.874Z,99.90
2018-09-26T22:18:46.436Z,99.90
2018-09-26T22:21:14.193Z,99.90
2018-09-26T22:23:41.783Z,99.90
2018-09-26T22:26:09.429Z,99.90
2018-09-26T22:28:37.023Z,99.90
2018-09-26T22:31:04.852Z,99.90
2018-09-26T22:33:32.404Z,99.90
2018-09-26T22:35:59.980Z,99.90
2018-09-26T22:38:27.533Z,99.90
2018-09-26T22:40:55.105Z,99.90
2018-09-26T22:43:22.656Z,99.90
2018-09-26T22:45:50.276Z,99.90
2018-09-26T22:48:17.879Z,99.90
2018-09-26T22:50:45.453Z,99.90
2018-09-26T22:53:13.005Z,99.90
2018-09-26T22:55:40.569Z,99.90
2018-09-26T22:58:08.141Z,99.90
2018-09-26T23:00:35.688Z,99.90
2018-09-26T23:03:03.917Z,99.90
2018-09-26T23:05:31.719Z,99.90
2018-09-26T23:08:03.120Z,99.90
2018-09-26T23:10:30.737Z,99.90
2018-09-26T23:12:58.276Z,99.90
2018-09-26T23:15:25.880Z,99.90
2018-09-26T23:17:53.417Z,99.90
2018-09-26T23:20:21.029Z,99.90
2018-09-26T23:22:48.583Z,99.90
2018-09-26T23:25:16.121Z,99.90
2018-09-26T23:27:43.733Z,99.90
2018-09-26T23:30:11.281Z,99.90
2018-09-26T23:32:38.847Z,99.90
2018-09-26T23:35:07.041Z,99.90
2018-09-26T23:37:34.626Z,99.90
2018-09-26T23:40:02.176Z,99.90
2018-09-26T23:42:29.749Z,99.90
2018-09-26T23:44:57.298Z,99.90
2018-09-26T23:47:24.868Z,99.90
2018-09-26T23:49:52.402Z,99.90
2018-09-26T23:52:19.973Z,99.90
2018-09-26T23:54:47.605Z,99.90
2018-09-26T23:57:15.184Z,99.90
2018-09-26T23:59:42.722Z,99.90
